KDKK/DKK METAR and TAF weather

Enter ICAO airport designator
Station Type Date Time Source
KDKK METAR 2019/02/23 01:53 UTC NOAA

KDKK 230153Z AUTO 06003KT 10SM CLR M03/M06 A3046 RMK AO2 SLP325 T10281061


Station Type Date Time Source
KDKK Decoded METAR 2019/02/23 01:53 UTC NOAA

CHAUTAUQUA COUNTY/DUNKIRK, NY, United States (KDKK) 42-30N 079-17W 202M
Feb 22, 2019 - 08:53 PM EST / 2019.02.23 0153 UTC
Wind: from the ENE (060 degrees) at 3 MPH (3 KT):0
Visibility: 10 mile(s):0
Sky conditions: clear
Temperature: 27.0 F (-2.8 C)
Dew Point: 21.0 F (-6.1 C)
Relative Humidity: 77%
Pressure (altimeter): 30.46 in. Hg (1031 hPa)
ob: KDKK 230153Z AUTO 06003KT 10SM CLR M03/M06 A3046 RMK AO2 SLP325 T10281061
cycle: 2

Station Type Date Time Source
KDKK TAF UTC NOAA

Error!


Example: see airport list